PANC/ANC METAR and TAF weather

Enter ICAO airport designator
Station Type Date Time Source
PANC METAR 2019/04/18 13:53 UTC NOAA

PANC 181353Z 36006KT 10SM FEW005 SCT006 OVC013 01/M03 A2938 RMK AO2 RAE48SNE48 SLP951 P0000 T00111028 VISNO N $


Station Type Date Time Source
PANC Decoded METAR 2019/04/18 13:53 UTC NOAA

TED STEVENS ANCHORAGE INTERNATIONAL , AK, United States (PANC) 61-10N 150-02W 48M
Apr 18, 2019 - 09:53 AM EDT / 2019.04.18 1353 UTC
Wind: from the N (360 degrees) at 7 MPH (6 KT):0
Visibility: 10 mile(s):0
Sky conditions: overcast
Precipitation last hour: A trace
Temperature: 34.0 F (1.1 C)
Windchill: 28 F (-2 C):1
Dew Point: 27.0 F (-2.8 C)
Relative Humidity: 75%
Pressure (altimeter): 29.38 in. Hg (994 hPa)
ob: PANC 181353Z 36006KT 10SM FEW005 SCT006 OVC013 01/M03 A2938 RMK AO2 RAE48SNE48 SLP951 P0000 T00111028 VISNO N
cycle: 14

Station Type Date Time Source
PANC TAF 2019/04/18 12:40 UTC NOAA

TAF PANC 181137Z 1812/1918 02006KT P6SM -SNRA BKN004 OVC030
TEMPO 1812/1816 4SM BR SCT004 BKN012
FM182100 VRB05KT P6SM -RA SCT004 OVC012
FM190300 VRB04KT 4SM -SN BR BKN005 OVC012

Example: see airport list